sensor_id;sensor_type;location;lat;lon;timestamp;P1;durP1;ratioP1;P2;durP2;ratioP2
3231;SDS011;1628;48.884;9.210;2022-12-17T05:00:52;43.33;;;29.23;;
3231;SDS011;1628;48.884;9.210;2022-12-17T05:03:36;43.63;;;28.87;;
3231;SDS011;1628;48.884;9.210;2022-12-17T05:06:20;39.87;;;29.00;;
3231;SDS011;1628;48.884;9.210;2022-12-17T05:09:04;48.70;;;31.87;;
3231;SDS011;1628;48.884;9.210;2022-12-17T05:11:48;53.43;;;32.73;;
3231;SDS011;1628;48.884;9.210;2022-12-17T05:14:32;57.40;;;34.23;;
3231;SDS011;1628;48.884;9.210;2022-12-17T05:17:18;54.60;;;33.40;;
3231;SDS011;1628;48.884;9.210;2022-12-17T05:20:02;64.67;;;36.30;;
3231;SDS011;1628;48.884;9.210;2022-12-17T05:22:46;53.50;;;32.17;;
3231;SDS011;1628;48.884;9.210;2022-12-17T05:25:30;200.17;;;36.97;;
3231;SDS011;1628;48.884;9.210;2022-12-17T05:28:14;103.93;;;35.50;;
3231;SDS011;1628;48.884;9.210;2022-12-17T05:30:58;187.70;;;38.63;;
3231;SDS011;1628;48.884;9.210;2022-12-17T05:33:44;108.77;;;39.30;;
3231;SDS011;1628;48.884;9.210;2022-12-17T05:36:28;80.33;;;38.37;;
3231;SDS011;1628;48.884;9.210;2022-12-17T05:39:12;67.60;;;36.17;;
3231;SDS011;1628;48.884;9.210;2022-12-17T05:41:57;68.27;;;37.70;;
3231;SDS011;1628;48.884;9.210;2022-12-17T05:44:41;84.37;;;39.60;;
3231;SDS011;1628;48.884;9.210;2022-12-17T05:47:25;136.43;;;38.10;;
3231;SDS011;1628;48.884;9.210;2022-12-17T05:50:10;248.50;;;42.53;;
3231;SDS011;1628;48.884;9.210;2022-12-17T05:52:59;112.60;;;38.90;;
3231;SDS011;1628;48.884;9.210;2022-12-17T05:55:47;186.90;;;41.50;;
3231;SDS011;1628;48.884;9.210;2022-12-17T05:58:31;70.60;;;36.40;;
3231;SDS011;1628;48.884;9.210;2022-12-17T06:01:15;199.33;;;39.83;;
3231;SDS011;1628;48.884;9.210;2022-12-17T06:03:59;103.63;;;39.40;;
3231;SDS011;1628;48.884;9.210;2022-12-17T06:06:45;72.60;;;38.90;;
3231;SDS011;1628;48.884;9.210;2022-12-17T06:09:29;292.30;;;46.50;;
3231;SDS011;1628;48.884;9.210;2022-12-17T06:12:13;193.07;;;42.57;;
3231;SDS011;1628;48.884;9.210;2022-12-17T06:14:57;150.70;;;42.50;;
3231;SDS011;1628;48.884;9.210;2022-12-17T06:17:41;75.70;;;39.00;;
3231;SDS011;1628;48.884;9.210;2022-12-17T06:20:25;310.50;;;44.73;;
3231;SDS011;1628;48.884;9.210;2022-12-17T06:23:10;176.43;;;42.77;;
3231;SDS011;1628;48.884;9.210;2022-12-17T06:25:55;75.00;;;38.83;;
3231;SDS011;1628;48.884;9.210;2022-12-17T06:28:48;199.07;;;45.67;;
3231;SDS011;1628;48.884;9.210;2022-12-17T06:31:32;233.23;;;47.23;;
3231;SDS011;1628;48.884;9.210;2022-12-17T06:34:17;272.90;;;47.40;;
3231;SDS011;1628;48.884;9.210;2022-12-17T06:37:00;229.20;;;47.40;;
3231;SDS011;1628;48.884;9.210;2022-12-17T06:39:46;137.40;;;43.13;;
3231;SDS011;1628;48.884;9.210;2022-12-17T06:42:30;131.07;;;44.17;;
3231;SDS011;1628;48.884;9.210;2022-12-17T06:45:14;167.03;;;46.43;;
3231;SDS011;1628;48.884;9.210;2022-12-17T06:48:02;141.63;;;47.97;;
3231;SDS011;1628;48.884;9.210;2022-12-17T06:50:48;218.73;;;46.57;;
3231;SDS011;1628;48.884;9.210;2022-12-17T06:53:33;86.47;;;45.00;;
3231;SDS011;1628;48.884;9.210;2022-12-17T06:56:19;230.70;;;53.27;;
3231;SDS011;1628;48.884;9.210;2022-12-17T06:59:03;193.57;;;49.37;;
3231;SDS011;1628;48.884;9.210;2022-12-17T07:01:47;158.00;;;51.37;;
3231;SDS011;1628;48.884;9.210;2022-12-17T07:04:31;124.27;;;52.73;;
3231;SDS011;1628;48.884;9.210;2022-12-17T07:07:15;109.70;;;49.93;;
3231;SDS011;1628;48.884;9.210;2022-12-17T07:09:59;100.67;;;50.97;;
3231;SDS011;1628;48.884;9.210;2022-12-17T07:12:45;96.20;;;49.60;;
3231;SDS011;1628;48.884;9.210;2022-12-17T07:15:28;97.80;;;51.00;;
3231;SDS011;1628;48.884;9.210;2022-12-17T07:18:12;100.63;;;51.27;;
3231;SDS011;1628;48.884;9.210;2022-12-17T07:20:57;98.10;;;50.60;;
3231;SDS011;1628;48.884;9.210;2022-12-17T07:23:41;102.60;;;51.87;;
3231;SDS011;1628;48.884;9.210;2022-12-17T07:26:25;101.70;;;53.43;;
3231;SDS011;1628;48.884;9.210;2022-12-17T07:29:10;105.60;;;52.80;;
3231;SDS011;1628;48.884;9.210;2022-12-17T07:31:54;94.70;;;50.37;;
3231;SDS011;1628;48.884;9.210;2022-12-17T07:34:38;95.77;;;50.00;;
3231;SDS011;1628;48.884;9.210;2022-12-17T07:37:22;96.43;;;51.23;;
3231;SDS011;1628;48.884;9.210;2022-12-17T07:40:06;94.57;;;50.70;;
3231;SDS011;1628;48.884;9.210;2022-12-17T07:42:51;91.93;;;49.17;;
3231;SDS011;1628;48.884;9.210;2022-12-17T07:45:48;86.17;;;47.97;;
3231;SDS011;1628;48.884;9.210;2022-12-17T07:48:47;92.57;;;50.37;;
3231;SDS011;1628;48.884;9.210;2022-12-17T07:51:31;83.50;;;47.80;;
3231;SDS011;1628;48.884;9.210;2022-12-17T07:54:16;80.33;;;48.77;;
3231;SDS011;1628;48.884;9.210;2022-12-17T07:57:00;80.93;;;48.57;;
3231;SDS011;1628;48.884;9.210;2022-12-17T07:59:44;81.90;;;51.03;;
3231;SDS011;1628;48.884;9.210;2022-12-17T08:02:29;76.60;;;46.97;;
3231;SDS011;1628;48.884;9.210;2022-12-17T08:05:14;72.83;;;46.40;;
3231;SDS011;1628;48.884;9.210;2022-12-17T08:08:05;76.90;;;47.97;;
3231;SDS011;1628;48.884;9.210;2022-12-17T08:10:50;68.83;;;44.33;;
3231;SDS011;1628;48.884;9.210;2022-12-17T08:13:34;65.60;;;43.50;;
3231;SDS011;1628;48.884;9.210;2022-12-17T08:16:18;69.93;;;45.33;;
3231;SDS011;1628;48.884;9.210;2022-12-17T08:19:03;59.00;;;41.10;;
3231;SDS011;1628;48.884;9.210;2022-12-17T08:21:48;60.60;;;41.90;;
3231;SDS011;1628;48.884;9.210;2022-12-17T08:24:32;61.60;;;43.10;;
3231;SDS011;1628;48.884;9.210;2022-12-17T08:27:16;66.57;;;43.70;;
3231;SDS011;1628;48.884;9.210;2022-12-17T08:30:00;63.57;;;43.33;;
3231;SDS011;1628;48.884;9.210;2022-12-17T08:32:44;60.80;;;40.20;;
3231;SDS011;1628;48.884;9.210;2022-12-17T08:35:29;63.87;;;43.73;;
3231;SDS011;1628;48.884;9.210;2022-12-17T08:38:14;59.97;;;42.20;;
3231;SDS011;1628;48.884;9.210;2022-12-17T08:40:58;69.03;;;43.90;;
3231;SDS011;1628;48.884;9.210;2022-12-17T08:43:42;62.60;;;41.80;;
3231;SDS011;1628;48.884;9.210;2022-12-17T08:46:26;62.57;;;42.57;;
3231;SDS011;1628;48.884;9.210;2022-12-17T08:49:10;63.17;;;42.60;;
3231;SDS011;1628;48.884;9.210;2022-12-17T08:51:56;66.87;;;42.83;;
3231;SDS011;1628;48.884;9.210;2022-12-17T08:54:40;59.97;;;41.70;;
3231;SDS011;1628;48.884;9.210;2022-12-17T08:57:24;60.40;;;42.23;;
3231;SDS011;1628;48.884;9.210;2022-12-17T09:00:09;59.93;;;42.60;;
3231;SDS011;1628;48.884;9.210;2022-12-17T09:02:55;59.73;;;41.20;;
3231;SDS011;1628;48.884;9.210;2022-12-17T09:05:40;54.70;;;40.87;;
3231;SDS011;1628;48.884;9.210;2022-12-17T09:08:26;49.27;;;37.80;;
3231;SDS011;1628;48.884;9.210;2022-12-17T09:11:10;53.77;;;39.50;;
3231;SDS011;1628;48.884;9.210;2022-12-17T09:13:54;55.00;;;39.97;;
3231;SDS011;1628;48.884;9.210;2022-12-17T09:16:38;49.60;;;37.80;;
3231;SDS011;1628;48.884;9.210;2022-12-17T09:19:22;57.97;;;39.10;;
3231;SDS011;1628;48.884;9.210;2022-12-17T09:22:06;54.80;;;41.13;;
3231;SDS011;1628;48.884;9.210;2022-12-17T09:24:51;58.97;;;38.03;;
3231;SDS011;1628;48.884;9.210;2022-12-17T09:27:36;65.43;;;40.17;;
3231;SDS011;1628;48.884;9.210;2022-12-17T09:30:20;56.63;;;39.70;;
3231;SDS011;1628;48.884;9.210;2022-12-17T09:33:04;60.60;;;40.43;;
3231;SDS011;1628;48.884;9.210;2022-12-17T09:35:48;52.50;;;38.23;;
3231;SDS011;1628;48.884;9.210;2022-12-17T09:38:33;55.50;;;38.70;;
3231;SDS011;1628;48.884;9.210;2022-12-17T09:41:20;55.33;;;39.10;;
3231;SDS011;1628;48.884;9.210;2022-12-17T09:44:13;50.60;;;34.10;;
3231;SDS011;1628;48.884;9.210;2022-12-17T09:47:05;51.43;;;34.57;;
3231;SDS011;1628;48.884;9.210;2022-12-17T09:49:59;54.63;;;36.40;;
3231;SDS011;1628;48.884;9.210;2022-12-17T09:52:45;48.73;;;36.27;;
3231;SDS011;1628;48.884;9.210;2022-12-17T09:55:31;52.87;;;36.40;;
3231;SDS011;1628;48.884;9.210;2022-12-17T09:58:22;46.70;;;33.87;;
3231;SDS011;1628;48.884;9.210;2022-12-17T10:01:10;47.47;;;34.20;;
3231;SDS011;1628;48.884;9.210;2022-12-17T10:03:58;48.20;;;37.70;;
3231;SDS011;1628;48.884;9.210;2022-12-17T10:06:42;60.37;;;39.30;;
3231;SDS011;1628;48.884;9.210;2022-12-17T10:09:26;47.23;;;34.60;;
3231;SDS011;1628;48.884;9.210;2022-12-17T10:12:14;52.93;;;36.00;;
3231;SDS011;1628;48.884;9.210;2022-12-17T10:15:01;52.33;;;37.43;;
3231;SDS011;1628;48.884;9.210;2022-12-17T10:17:46;48.93;;;36.80;;
3231;SDS011;1628;48.884;9.210;2022-12-17T10:20:31;46.93;;;37.10;;
3231;SDS011;1628;48.884;9.210;2022-12-17T10:23:22;46.53;;;36.20;;
3231;SDS011;1628;48.884;9.210;2022-12-17T10:26:07;47.90;;;36.67;;
3231;SDS011;1628;48.884;9.210;2022-12-17T10:28:59;48.10;;;37.40;;
3231;SDS011;1628;48.884;9.210;2022-12-17T10:31:46;46.83;;;35.10;;
3231;SDS011;1628;48.884;9.210;2022-12-17T10:34:33;49.23;;;37.07;;
3231;SDS011;1628;48.884;9.210;2022-12-17T10:37:19;50.23;;;36.97;;
3231;SDS011;1628;48.884;9.210;2022-12-17T10:40:14;51.33;;;37.17;;
3231;SDS011;1628;48.884;9.210;2022-12-17T10:43:19;46.53;;;36.80;;
3231;SDS011;1628;48.884;9.210;2022-12-17T10:46:05;50.57;;;38.30;;
3231;SDS011;1628;48.884;9.210;2022-12-17T10:48:51;48.80;;;37.00;;
3231;SDS011;1628;48.884;9.210;2022-12-17T10:51:46;51.27;;;38.97;;
3231;SDS011;1628;48.884;9.210;2022-12-17T10:54:31;55.40;;;39.07;;
3231;SDS011;1628;48.884;9.210;2022-12-17T10:57:29;49.70;;;36.60;;
3231;SDS011;1628;48.884;9.210;2022-12-17T11:00:22;48.00;;;35.83;;
3231;SDS011;1628;48.884;9.210;2022-12-17T11:03:21;49.63;;;36.50;;
3231;SDS011;1628;48.884;9.210;2022-12-17T11:06:09;47.30;;;37.40;;
3231;SDS011;1628;48.884;9.210;2022-12-17T11:08:55;46.33;;;37.47;;
3231;SDS011;1628;48.884;9.210;2022-12-17T11:11:42;42.70;;;35.20;;
3231;SDS011;1628;48.884;9.210;2022-12-17T11:14:27;49.13;;;35.30;;
3231;SDS011;1628;48.884;9.210;2022-12-17T11:17:12;48.17;;;36.53;;
3231;SDS011;1628;48.884;9.210;2022-12-17T11:20:01;46.57;;;35.70;;
3231;SDS011;1628;48.884;9.210;2022-12-17T11:22:51;44.60;;;36.33;;
3231;SDS011;1628;48.884;9.210;2022-12-17T11:25:39;45.90;;;36.37;;
3231;SDS011;1628;48.884;9.210;2022-12-17T11:28:28;47.90;;;37.27;;
3231;SDS011;1628;48.884;9.210;2022-12-17T11:31:21;48.10;;;36.00;;
3231;SDS011;1628;48.884;9.210;2022-12-17T11:34:18;48.90;;;37.43;;
3231;SDS011;1628;48.884;9.210;2022-12-17T11:37:13;54.67;;;43.73;;
3231;SDS011;1628;48.884;9.210;2022-12-17T11:40:09;50.80;;;40.87;;
3231;SDS011;1628;48.884;9.210;2022-12-17T11:43:01;50.90;;;39.33;;
3231;SDS011;1628;48.884;9.210;2022-12-17T11:45:56;54.93;;;40.83;;
3231;SDS011;1628;48.884;9.210;2022-12-17T11:48:51;51.77;;;41.40;;
3231;SDS011;1628;48.884;9.210;2022-12-17T11:51:43;49.30;;;38.90;;
3231;SDS011;1628;48.884;9.210;2022-12-17T11:54:34;44.57;;;36.80;;
3231;SDS011;1628;48.884;9.210;2022-12-17T11:57:28;51.90;;;40.37;;
3231;SDS011;1628;48.884;9.210;2022-12-17T12:00:20;49.90;;;40.73;;
3231;SDS011;1628;48.884;9.210;2022-12-17T12:03:09;54.10;;;42.53;;
3231;SDS011;1628;48.884;9.210;2022-12-17T12:06:08;56.90;;;44.70;;
3231;SDS011;1628;48.884;9.210;2022-12-17T12:08:58;56.60;;;42.57;;
3231;SDS011;1628;48.884;9.210;2022-12-17T12:11:51;50.57;;;39.07;;
3231;SDS011;1628;48.884;9.210;2022-12-17T12:14:46;46.90;;;38.17;;
3231;SDS011;1628;48.884;9.210;2022-12-17T12:17:38;53.93;;;40.97;;
3231;SDS011;1628;48.884;9.210;2022-12-17T12:23:50;46.33;;;38.17;;
3231;SDS011;1628;48.884;9.210;2022-12-17T12:26:44;47.83;;;36.40;;
3231;SDS011;1628;48.884;9.210;2022-12-17T12:29:35;45.87;;;37.67;;
3231;SDS011;1628;48.884;9.210;2022-12-17T12:32:28;47.77;;;38.00;;
3231;SDS011;1628;48.884;9.210;2022-12-17T12:35:23;50.77;;;39.97;;
3231;SDS011;1628;48.884;9.210;2022-12-17T12:38:09;49.40;;;38.57;;
3231;SDS011;1628;48.884;9.210;2022-12-17T12:41:04;47.03;;;37.87;;
3231;SDS011;1628;48.884;9.210;2022-12-17T12:43:57;50.00;;;38.43;;
3231;SDS011;1628;48.884;9.210;2022-12-17T12:46:45;47.83;;;37.90;;
3231;SDS011;1628;48.884;9.210;2022-12-17T12:49:37;53.07;;;40.27;;
3231;SDS011;1628;48.884;9.210;2022-12-17T12:52:26;48.40;;;38.60;;
3231;SDS011;1628;48.884;9.210;2022-12-17T12:55:12;44.20;;;37.67;;
3231;SDS011;1628;48.884;9.210;2022-12-17T12:57:56;49.30;;;41.40;;
3231;SDS011;1628;48.884;9.210;2022-12-17T13:00:50;49.30;;;40.53;;
3231;SDS011;1628;48.884;9.210;2022-12-17T13:03:36;48.97;;;40.53;;
3231;SDS011;1628;48.884;9.210;2022-12-17T13:06:41;54.97;;;41.93;;
3231;SDS011;1628;48.884;9.210;2022-12-17T13:09:18;47.37;;;40.00;;
3231;SDS011;1628;48.884;9.210;2022-12-17T13:11:47;51.13;;;42.47;;
3231;SDS011;1628;48.884;9.210;2022-12-17T13:14:16;50.63;;;41.43;;
3231;SDS011;1628;48.884;9.210;2022-12-17T13:16:48;48.13;;;39.03;;
3231;SDS011;1628;48.884;9.210;2022-12-17T13:19:19;51.50;;;41.40;;
3231;SDS011;1628;48.884;9.210;2022-12-17T13:22:09;51.70;;;42.80;;
3231;SDS011;1628;48.884;9.210;2022-12-17T13:24:37;49.67;;;40.77;;
3231;SDS011;1628;48.884;9.210;2022-12-17T13:27:04;52.57;;;42.23;;
3231;SDS011;1628;48.884;9.210;2022-12-17T13:29:46;48.73;;;39.53;;
3231;SDS011;1628;48.884;9.210;2022-12-17T13:32:15;49.60;;;41.60;;
3231;SDS011;1628;48.884;9.210;2022-12-17T13:34:50;47.93;;;39.53;;
3231;SDS011;1628;48.884;9.210;2022-12-17T13:37:32;48.17;;;39.80;;
3231;SDS011;1628;48.884;9.210;2022-12-17T13:40:20;53.97;;;40.27;;
3231;SDS011;1628;48.884;9.210;2022-12-17T13:42:54;45.80;;;37.70;;
3231;SDS011;1628;48.884;9.210;2022-12-17T13:45:21;52.90;;;43.43;;
3231;SDS011;1628;48.884;9.210;2022-12-17T13:47:53;53.10;;;42.37;;
3231;SDS011;1628;48.884;9.210;2022-12-17T13:50:21;52.17;;;41.63;;
3231;SDS011;1628;48.884;9.210;2022-12-17T13:52:50;51.20;;;40.67;;
3231;SDS011;1628;48.884;9.210;2022-12-17T13:55:18;56.10;;;42.37;;
3231;SDS011;1628;48.884;9.210;2022-12-17T13:57:47;49.50;;;42.03;;
3231;SDS011;1628;48.884;9.210;2022-12-17T14:00:18;57.60;;;43.23;;
3231;SDS011;1628;48.884;9.210;2022-12-17T14:02:47;55.60;;;42.90;;
3231;SDS011;1628;48.884;9.210;2022-12-17T14:05:21;58.43;;;43.03;;
3231;SDS011;1628;48.884;9.210;2022-12-17T14:07:52;61.37;;;44.80;;
3231;SDS011;1628;48.884;9.210;2022-12-17T14:10:19;54.53;;;43.33;;
3231;SDS011;1628;48.884;9.210;2022-12-17T14:12:46;58.67;;;43.30;;
3231;SDS011;1628;48.884;9.210;2022-12-17T14:15:16;53.73;;;42.80;;
3231;SDS011;1628;48.884;9.210;2022-12-17T14:17:48;53.70;;;43.40;;
3231;SDS011;1628;48.884;9.210;2022-12-17T14:20:16;55.97;;;40.27;;
3231;SDS011;1628;48.884;9.210;2022-12-17T14:22:45;50.33;;;40.50;;
3231;SDS011;1628;48.884;9.210;2022-12-17T14:25:16;56.70;;;43.50;;
3231;SDS011;1628;48.884;9.210;2022-12-17T14:27:48;54.60;;;42.43;;
3231;SDS011;1628;48.884;9.210;2022-12-17T14:30:19;53.80;;;42.90;;
3231;SDS011;1628;48.884;9.210;2022-12-17T14:32:49;53.07;;;43.23;;
3231;SDS011;1628;48.884;9.210;2022-12-17T14:35:22;54.33;;;40.30;;
3231;SDS011;1628;48.884;9.210;2022-12-17T14:37:50;56.17;;;41.60;;
3231;SDS011;1628;48.884;9.210;2022-12-17T14:40:18;52.30;;;38.90;;
3231;SDS011;1628;48.884;9.210;2022-12-17T14:42:46;55.27;;;42.30;;
3231;SDS011;1628;48.884;9.210;2022-12-17T14:45:20;49.07;;;40.50;;
3231;SDS011;1628;48.884;9.210;2022-12-17T14:47:52;53.73;;;42.07;;
3231;SDS011;1628;48.884;9.210;2022-12-17T14:50:28;51.13;;;39.07;;
3231;SDS011;1628;48.884;9.210;2022-12-17T14:52:57;50.87;;;40.47;;
3231;SDS011;1628;48.884;9.210;2022-12-17T14:55:33;54.57;;;41.93;;
3231;SDS011;1628;48.884;9.210;2022-12-17T14:58:13;55.77;;;43.10;;
3231;SDS011;1628;48.884;9.210;2022-12-17T15:00:42;52.67;;;39.73;;
3231;SDS011;1628;48.884;9.210;2022-12-17T15:03:13;52.00;;;39.73;;
3231;SDS011;1628;48.884;9.210;2022-12-17T15:05:43;55.00;;;40.53;;
3231;SDS011;1628;48.884;9.210;2022-12-17T15:08:13;56.50;;;42.73;;
3231;SDS011;1628;48.884;9.210;2022-12-17T15:10:41;54.17;;;41.37;;
3231;SDS011;1628;48.884;9.210;2022-12-17T15:13:08;58.13;;;43.30;;
3231;SDS011;1628;48.884;9.210;2022-12-17T15:15:34;58.30;;;44.10;;
3231;SDS011;1628;48.884;9.210;2022-12-17T15:18:01;58.77;;;44.30;;
3231;SDS011;1628;48.884;9.210;2022-12-17T15:20:28;58.87;;;44.60;;
3231;SDS011;1628;48.884;9.210;2022-12-17T15:22:55;58.50;;;42.37;;
3231;SDS011;1628;48.884;9.210;2022-12-17T15:25:22;58.03;;;44.37;;
3231;SDS011;1628;48.884;9.210;2022-12-17T15:27:50;56.27;;;41.80;;
3231;SDS011;1628;48.884;9.210;2022-12-17T15:30:17;57.50;;;42.60;;
3231;SDS011;1628;48.884;9.210;2022-12-17T15:32:44;60.60;;;43.33;;
3231;SDS011;1628;48.884;9.210;2022-12-17T15:35:11;56.70;;;41.27;;
3231;SDS011;1628;48.884;9.210;2022-12-17T15:37:39;55.47;;;41.80;;
3231;SDS011;1628;48.884;9.210;2022-12-17T15:40:06;55.67;;;42.93;;
3231;SDS011;1628;48.884;9.210;2022-12-17T15:42:35;61.40;;;43.23;;
3231;SDS011;1628;48.884;9.210;2022-12-17T15:45:21;55.67;;;41.37;;
3231;SDS011;1628;48.884;9.210;2022-12-17T15:47:51;52.37;;;40.60;;
3231;SDS011;1628;48.884;9.210;2022-12-17T15:50:18;59.70;;;43.40;;
3231;SDS011;1628;48.884;9.210;2022-12-17T15:52:44;63.87;;;44.60;;
3231;SDS011;1628;48.884;9.210;2022-12-17T15:55:11;66.07;;;45.33;;
3231;SDS011;1628;48.884;9.210;2022-12-17T15:57:38;67.20;;;47.57;;
3231;SDS011;1628;48.884;9.210;2022-12-17T16:00:05;66.10;;;47.93;;
3231;SDS011;1628;48.884;9.210;2022-12-17T16:02:36;67.43;;;49.37;;
3231;SDS011;1628;48.884;9.210;2022-12-17T16:05:04;66.10;;;50.07;;
3231;SDS011;1628;48.884;9.210;2022-12-17T16:07:35;75.47;;;50.30;;
3231;SDS011;1628;48.884;9.210;2022-12-17T16:10:02;73.13;;;50.17;;
3231;SDS011;1628;48.884;9.210;2022-12-17T16:12:30;76.83;;;51.33;;
3231;SDS011;1628;48.884;9.210;2022-12-17T16:14:57;75.40;;;50.10;;
3231;SDS011;1628;48.884;9.210;2022-12-17T16:17:23;72.07;;;49.80;;
3231;SDS011;1628;48.884;9.210;2022-12-17T16:19:51;73.40;;;52.13;;
3231;SDS011;1628;48.884;9.210;2022-12-17T16:22:18;67.77;;;48.03;;
3231;SDS011;1628;48.884;9.210;2022-12-17T16:24:45;83.33;;;52.93;;
3231;SDS011;1628;48.884;9.210;2022-12-17T16:27:11;75.93;;;50.30;;
3231;SDS011;1628;48.884;9.210;2022-12-17T16:29:38;72.60;;;50.40;;
3231;SDS011;1628;48.884;9.210;2022-12-17T16:32:05;78.67;;;52.20;;
3231;SDS011;1628;48.884;9.210;2022-12-17T16:34:32;82.47;;;57.20;;
3231;SDS011;1628;48.884;9.210;2022-12-17T16:37:00;82.03;;;56.07;;
3231;SDS011;1628;48.884;9.210;2022-12-17T16:39:26;82.60;;;55.50;;
3231;SDS011;1628;48.884;9.210;2022-12-17T16:41:53;85.50;;;54.57;;
3231;SDS011;1628;48.884;9.210;2022-12-17T16:44:20;90.03;;;58.33;;
3231;SDS011;1628;48.884;9.210;2022-12-17T16:46:47;88.23;;;54.70;;
3231;SDS011;1628;48.884;9.210;2022-12-17T16:49:14;99.60;;;58.50;;
3231;SDS011;1628;48.884;9.210;2022-12-17T16:51:42;94.43;;;55.33;;
3231;SDS011;1628;48.884;9.210;2022-12-17T16:54:12;88.30;;;56.10;;
3231;SDS011;1628;48.884;9.210;2022-12-17T16:56:41;87.87;;;55.60;;
3231;SDS011;1628;48.884;9.210;2022-12-17T16:59:10;88.13;;;54.27;;
3231;SDS011;1628;48.884;9.210;2022-12-17T17:01:39;93.40;;;56.47;;
3231;SDS011;1628;48.884;9.210;2022-12-17T17:04:08;86.50;;;51.07;;
3231;SDS011;1628;48.884;9.210;2022-12-17T17:06:37;92.73;;;56.47;;
3231;SDS011;1628;48.884;9.210;2022-12-17T17:09:04;86.13;;;52.20;;
3231;SDS011;1628;48.884;9.210;2022-12-17T17:11:33;93.87;;;56.97;;
3231;SDS011;1628;48.884;9.210;2022-12-17T17:13:59;84.07;;;53.50;;
3231;SDS011;1628;48.884;9.210;2022-12-17T17:16:26;86.80;;;54.13;;
3231;SDS011;1628;48.884;9.210;2022-12-17T17:18:53;89.73;;;50.73;;
3231;SDS011;1628;48.884;9.210;2022-12-17T17:21:22;95.00;;;54.20;;
3231;SDS011;1628;48.884;9.210;2022-12-17T17:23:52;87.40;;;54.80;;
3231;SDS011;1628;48.884;9.210;2022-12-17T17:26:21;90.73;;;58.47;;
3231;SDS011;1628;48.884;9.210;2022-12-17T17:28:50;91.10;;;59.80;;
3231;SDS011;1628;48.884;9.210;2022-12-17T17:31:17;85.50;;;56.03;;
3231;SDS011;1628;48.884;9.210;2022-12-17T17:33:45;88.23;;;55.57;;
3231;SDS011;1628;48.884;9.210;2022-12-17T17:36:14;92.70;;;55.13;;
3231;SDS011;1628;48.884;9.210;2022-12-17T17:38:42;98.00;;;56.87;;
3231;SDS011;1628;48.884;9.210;2022-12-17T17:41:09;99.80;;;56.60;;
3231;SDS011;1628;48.884;9.210;2022-12-17T17:43:37;103.23;;;57.80;;
3231;SDS011;1628;48.884;9.210;2022-12-17T17:46:06;98.23;;;59.60;;
3231;SDS011;1628;48.884;9.210;2022-12-17T17:48:34;99.97;;;58.13;;
3231;SDS011;1628;48.884;9.210;2022-12-17T17:51:02;93.83;;;54.97;;
3231;SDS011;1628;48.884;9.210;2022-12-17T17:53:31;107.80;;;56.00;;
3231;SDS011;1628;48.884;9.210;2022-12-17T17:56:02;97.83;;;54.80;;
3231;SDS011;1628;48.884;9.210;2022-12-17T17:58:30;103.93;;;58.60;;
3231;SDS011;1628;48.884;9.210;2022-12-17T18:00:57;101.10;;;57.07;;
3231;SDS011;1628;48.884;9.210;2022-12-17T18:03:25;104.07;;;58.23;;
3231;SDS011;1628;48.884;9.210;2022-12-17T18:05:54;95.83;;;54.37;;
3231;SDS011;1628;48.884;9.210;2022-12-17T18:08:20;108.43;;;56.60;;
3231;SDS011;1628;48.884;9.210;2022-12-17T18:10:53;107.73;;;58.10;;
3231;SDS011;1628;48.884;9.210;2022-12-17T18:13:21;103.13;;;57.30;;
3231;SDS011;1628;48.884;9.210;2022-12-17T18:16:06;105.37;;;56.83;;
3231;SDS011;1628;48.884;9.210;2022-12-17T18:18:34;114.75;;;69.90;;
3231;SDS011;1628;48.884;9.210;2022-12-17T18:21:01;113.57;;;66.63;;
3231;SDS011;1628;48.884;9.210;2022-12-17T18:23:29;106.50;;;59.37;;
3231;SDS011;1628;48.884;9.210;2022-12-17T18:25:55;104.80;;;58.10;;
3231;SDS011;1628;48.884;9.210;2022-12-17T18:28:28;103.37;;;56.40;;
3231;SDS011;1628;48.884;9.210;2022-12-17T18:30:55;103.80;;;57.13;;
3231;SDS011;1628;48.884;9.210;2022-12-17T18:33:21;103.53;;;56.07;;
3231;SDS011;1628;48.884;9.210;2022-12-17T18:35:50;111.10;;;59.60;;
3231;SDS011;1628;48.884;9.210;2022-12-17T18:38:17;114.47;;;56.73;;
3231;SDS011;1628;48.884;9.210;2022-12-17T18:40:43;118.97;;;62.80;;
3231;SDS011;1628;48.884;9.210;2022-12-17T18:43:10;108.87;;;61.53;;
3231;SDS011;1628;48.884;9.210;2022-12-17T18:45:48;103.67;;;57.87;;
3231;SDS011;1628;48.884;9.210;2022-12-17T18:48:15;101.30;;;55.60;;
3231;SDS011;1628;48.884;9.210;2022-12-17T18:50:41;98.50;;;56.10;;
3231;SDS011;1628;48.884;9.210;2022-12-17T18:53:09;98.00;;;56.50;;
3231;SDS011;1628;48.884;9.210;2022-12-17T18:55:36;101.47;;;55.53;;
3231;SDS011;1628;48.884;9.210;2022-12-17T18:58:04;93.47;;;53.60;;
3231;SDS011;1628;48.884;9.210;2022-12-17T19:00:31;96.27;;;55.43;;
3231;SDS011;1628;48.884;9.210;2022-12-17T19:02:58;83.03;;;51.57;;
3231;SDS011;1628;48.884;9.210;2022-12-17T19:05:25;88.87;;;52.53;;
3231;SDS011;1628;48.884;9.210;2022-12-17T19:07:51;86.50;;;51.13;;
3231;SDS011;1628;48.884;9.210;2022-12-17T19:10:19;95.23;;;51.93;;
3231;SDS011;1628;48.884;9.210;2022-12-17T19:12:46;85.20;;;49.63;;
3231;SDS011;1628;48.884;9.210;2022-12-17T19:15:13;91.67;;;53.70;;
3231;SDS011;1628;48.884;9.210;2022-12-17T19:17:39;94.77;;;57.10;;
3231;SDS011;1628;48.884;9.210;2022-12-17T19:20:06;93.93;;;54.93;;
3231;SDS011;1628;48.884;9.210;2022-12-17T19:22:34;100.73;;;54.37;;
3231;SDS011;1628;48.884;9.210;2022-12-17T19:25:01;84.77;;;53.00;;
3231;SDS011;1628;48.884;9.210;2022-12-17T19:27:29;78.40;;;49.70;;
3231;SDS011;1628;48.884;9.210;2022-12-17T19:29:55;87.60;;;51.67;;
3231;SDS011;1628;48.884;9.210;2022-12-17T19:32:22;81.23;;;51.47;;
3231;SDS011;1628;48.884;9.210;2022-12-17T19:34:49;93.67;;;56.40;;
3231;SDS011;1628;48.884;9.210;2022-12-17T19:37:16;88.00;;;52.47;;
3231;SDS011;1628;48.884;9.210;2022-12-17T19:39:42;85.40;;;52.47;;
3231;SDS011;1628;48.884;9.210;2022-12-17T19:42:09;85.73;;;51.87;;
3231;SDS011;1628;48.884;9.210;2022-12-17T19:44:49;79.33;;;48.60;;
3231;SDS011;1628;48.884;9.210;2022-12-17T19:47:16;94.00;;;51.77;;
3231;SDS011;1628;48.884;9.210;2022-12-17T19:49:43;93.53;;;51.90;;
3231;SDS011;1628;48.884;9.210;2022-12-17T19:52:10;90.27;;;52.00;;
3231;SDS011;1628;48.884;9.210;2022-12-17T19:54:37;101.00;;;54.33;;
3231;SDS011;1628;48.884;9.210;2022-12-17T19:57:03;95.33;;;53.57;;
3231;SDS011;1628;48.884;9.210;2022-12-17T19:59:30;104.33;;;56.57;;
3231;SDS011;1628;48.884;9.210;2022-12-17T20:01:58;95.30;;;55.63;;
3231;SDS011;1628;48.884;9.210;2022-12-17T20:04:27;113.57;;;57.97;;
3231;SDS011;1628;48.884;9.210;2022-12-17T20:06:55;110.43;;;57.67;;
3231;SDS011;1628;48.884;9.210;2022-12-17T20:09:22;106.10;;;53.97;;
3231;SDS011;1628;48.884;9.210;2022-12-17T20:11:49;112.00;;;54.40;;
3231;SDS011;1628;48.884;9.210;2022-12-17T20:14:16;107.00;;;57.23;;
3231;SDS011;1628;48.884;9.210;2022-12-17T20:16:45;123.20;;;57.70;;
3231;SDS011;1628;48.884;9.210;2022-12-17T20:19:15;121.37;;;57.63;;
3231;SDS011;1628;48.884;9.210;2022-12-17T20:21:43;123.23;;;55.83;;
3231;SDS011;1628;48.884;9.210;2022-12-17T20:24:10;228.77;;;62.43;;
3231;SDS011;1628;48.884;9.210;2022-12-17T20:26:37;259.23;;;64.07;;
3231;SDS011;1628;48.884;9.210;2022-12-17T20:29:05;141.63;;;61.53;;
3231;SDS011;1628;48.884;9.210;2022-12-17T20:31:32;134.40;;;61.00;;
3231;SDS011;1628;48.884;9.210;2022-12-17T20:33:59;118.67;;;58.57;;
3231;SDS011;1628;48.884;9.210;2022-12-17T20:36:29;128.73;;;61.40;;
3231;SDS011;1628;48.884;9.210;2022-12-17T20:38:56;135.50;;;62.53;;
3231;SDS011;1628;48.884;9.210;2022-12-17T20:41:24;136.90;;;60.40;;
3231;SDS011;1628;48.884;9.210;2022-12-17T20:43:51;131.83;;;61.70;;
3231;SDS011;1628;48.884;9.210;2022-12-17T20:46:18;133.20;;;62.17;;
3231;SDS011;1628;48.884;9.210;2022-12-17T20:48:46;151.23;;;59.57;;
3231;SDS011;1628;48.884;9.210;2022-12-17T20:51:14;130.40;;;59.07;;